createdAt,value
2019-02-25T00:04:49.801Z,97511.00
2019-02-25T00:10:20.140Z,97502.00
2019-02-25T00:15:52.962Z,97490.00
2019-02-25T00:21:24.525Z,97491.00
2019-02-25T00:26:53.854Z,97482.00
2019-02-25T00:32:23.239Z,97468.00
2019-02-25T00:37:52.638Z,97484.00
2019-02-25T00:43:22.009Z,97477.00
2019-02-25T00:48:57.286Z,97495.00
2019-02-25T00:54:27.097Z,97495.00
2019-02-25T00:59:56.442Z,97484.00
2019-02-25T01:05:26.031Z,97495.00
2019-02-25T01:10:55.406Z,97504.00
2019-02-25T01:16:24.714Z,97490.00
2019-02-25T01:21:55.058Z,97495.00
2019-02-25T01:27:24.458Z,97489.00
2019-02-25T01:32:55.780Z,97479.00
2019-02-25T01:38:25.194Z,97471.00
2019-02-25T01:43:54.622Z,97474.00
2019-02-25T01:49:24.007Z,97477.00
2019-02-25T01:54:53.359Z,97487.00
2019-02-25T02:00:22.656Z,97488.00
2019-02-25T02:05:52.130Z,97491.00
2019-02-25T02:11:22.554Z,97492.00
2019-02-25T02:16:51.989Z,97492.00
2019-02-25T02:22:29.757Z,97484.00
2019-02-25T02:27:59.148Z,97483.00
2019-02-25T02:33:29.002Z,97486.00
2019-02-25T02:39:00.388Z,97480.00
2019-02-25T02:44:29.721Z,97475.00
2019-02-25T02:50:02.167Z,97479.00
2019-02-25T02:55:31.554Z,97477.00
2019-02-25T03:01:00.923Z,97479.00
2019-02-25T03:06:30.314Z,97467.00
2019-02-25T03:11:59.612Z,97466.00
2019-02-25T03:17:29.079Z,97464.00
2019-02-25T03:22:59.477Z,97477.00
2019-02-25T03:28:29.234Z,97467.00
2019-02-25T03:33:58.552Z,97474.00
2019-02-25T03:39:28.109Z,97456.00
2019-02-25T03:44:57.527Z,97463.00
2019-02-25T03:50:26.997Z,97463.00
2019-02-25T03:55:56.487Z,97460.00
2019-02-25T04:01:26.030Z,97454.00
2019-02-25T04:06:55.688Z,97459.00
2019-02-25T04:12:25.026Z,97465.00
2019-02-25T04:17:54.369Z,97454.00
2019-02-25T04:23:26.774Z,97455.00
2019-02-25T04:28:56.123Z,97453.00
2019-02-25T04:34:25.539Z,97455.00
2019-02-25T04:39:54.930Z,97447.00
2019-02-25T04:45:24.339Z,97455.00
2019-02-25T04:50:53.756Z,97468.00
2019-02-25T04:56:25.294Z,97456.00
2019-02-25T05:01:54.339Z,97449.00
2019-02-25T05:07:23.957Z,97467.00
2019-02-25T05:13:04.167Z,97473.00
2019-02-25T05:18:34.442Z,97468.00
2019-02-25T05:24:03.908Z,97475.00
2019-02-25T05:29:33.327Z,97473.00
2019-02-25T05:35:07.541Z,97453.00
2019-02-25T05:40:39.210Z,97458.00
2019-02-25T05:46:08.865Z,97467.00
2019-02-25T05:51:40.717Z,97477.00
2019-02-25T05:57:10.550Z,97468.00
2019-02-25T06:02:40.276Z,97474.00
2019-02-25T06:08:12.048Z,97481.00
2019-02-25T06:13:41.782Z,97471.00
2019-02-25T06:19:12.228Z,97476.00
2019-02-25T06:24:41.955Z,97472.00
2019-02-25T06:30:21.621Z,97466.00
2019-02-25T06:35:50.930Z,97474.00
2019-02-25T06:41:20.367Z,97477.00
2019-02-25T06:46:49.868Z,97475.00
2019-02-25T06:52:20.076Z,97475.00
2019-02-25T06:57:49.761Z,97493.00
2019-02-25T07:03:19.143Z,97487.00
2019-02-25T07:08:52.829Z,97481.00
2019-02-25T07:14:23.785Z,97469.00
2019-02-25T07:19:54.797Z,97472.00
2019-02-25T07:31:23.336Z,97469.00
2019-02-25T07:37:06.216Z,97475.00
2019-02-25T07:42:37.278Z,97480.00
2019-02-25T07:48:08.388Z,97484.00
2019-02-25T07:53:54.486Z,97488.00
2019-02-25T07:59:28.421Z,97493.00
2019-02-25T08:04:59.424Z,97491.00
2019-02-25T08:10:39.795Z,97486.00
2019-02-25T08:16:28.552Z,97479.00
2019-02-25T08:22:05.310Z,97482.00
2019-02-25T08:27:38.918Z,97478.00
2019-02-25T08:33:24.695Z,97484.00
2019-02-25T08:38:58.441Z,97489.00
2019-02-25T08:44:45.440Z,97502.00
2019-02-25T08:50:15.182Z,97499.00
2019-02-25T08:55:44.910Z,97504.00
2019-02-25T09:01:15.494Z,97504.00
2019-02-25T09:06:45.389Z,97512.00
2019-02-25T09:12:14.890Z,97512.00
2019-02-25T09:17:48.425Z,97517.00
2019-02-25T09:23:17.992Z,97521.00
2019-02-25T09:28:47.300Z,97525.00
2019-02-25T09:34:16.982Z,97533.00
2019-02-25T09:39:46.737Z,97535.00
2019-02-25T09:45:17.915Z,97535.00
2019-02-25T09:50:47.631Z,97534.00
2019-02-25T09:56:17.000Z,97535.00
2019-02-25T10:01:46.888Z,97537.00
2019-02-25T10:07:16.352Z,97550.00
2019-02-25T10:12:46.173Z,97566.00
2019-02-25T10:18:15.587Z,97564.00
2019-02-25T10:23:45.294Z,97575.00
2019-02-25T10:29:14.891Z,97572.00
2019-02-25T10:34:44.551Z,97581.00
2019-02-25T10:40:20.318Z,97576.00
2019-02-25T10:45:48.197Z,97575.00
2019-02-25T10:51:17.923Z,97574.00
2019-02-25T10:56:51.491Z,97560.00
2019-02-25T11:02:20.634Z,97557.00
2019-02-25T11:07:50.033Z,97546.00
2019-02-25T11:13:19.791Z,97551.00
2019-02-25T11:18:50.672Z,97542.00
2019-02-25T11:24:22.697Z,97533.00
2019-02-25T11:29:51.643Z,97538.00
2019-02-25T11:35:21.113Z,97538.00
2019-02-25T11:40:50.653Z,97524.00
2019-02-25T11:46:22.137Z,97527.00
2019-02-25T11:51:51.541Z,97512.00
2019-02-25T11:57:21.076Z,97517.00
2019-02-25T12:02:51.015Z,97514.00
2019-02-25T12:08:20.416Z,97518.00
2019-02-25T12:13:53.234Z,97522.00
2019-02-25T12:19:42.270Z,97515.00
2019-02-25T12:25:26.272Z,97515.00
2019-02-25T12:30:57.955Z,97504.00
2019-02-25T12:36:27.385Z,97497.00
2019-02-25T12:41:56.750Z,97503.00
2019-02-25T12:47:26.088Z,97497.00
2019-02-25T12:52:55.449Z,97487.00
2019-02-25T12:58:24.839Z,97477.00
2019-02-25T13:03:54.276Z,97458.00
2019-02-25T13:09:23.702Z,97441.00
2019-02-25T13:14:53.132Z,97437.00
2019-02-25T13:20:22.508Z,97433.00
2019-02-25T13:25:53.074Z,97422.00
2019-02-25T13:31:24.640Z,97428.00
2019-02-25T13:36:54.002Z,97428.00
2019-02-25T13:42:23.531Z,97428.00
2019-02-25T13:47:52.953Z,97431.00
2019-02-25T13:53:22.402Z,97415.00
2019-02-25T13:58:51.844Z,97414.00
2019-02-25T14:04:21.574Z,97409.00
2019-02-25T14:09:51.249Z,97402.00
2019-02-25T14:15:25.431Z,97405.00
2019-02-25T14:20:54.899Z,97401.00
2019-02-25T14:26:24.541Z,97401.00
2019-02-25T14:31:53.874Z,97383.00
2019-02-25T14:37:23.401Z,97333.00
2019-02-25T14:42:54.705Z,97342.00
2019-02-25T14:48:25.366Z,97355.00
2019-02-25T14:53:55.383Z,97356.00
2019-02-25T14:59:24.812Z,97367.00
2019-02-25T15:04:54.332Z,97349.00
2019-02-25T15:10:26.570Z,97354.00
2019-02-25T15:15:55.346Z,97344.00
2019-02-25T15:21:24.750Z,97320.00
2019-02-25T15:26:57.224Z,97300.00
2019-02-25T15:32:25.239Z,97315.00
2019-02-25T15:37:55.428Z,97331.00
2019-02-25T15:43:29.303Z,97351.00
2019-02-25T15:48:57.052Z,97360.00
2019-02-25T15:54:28.971Z,97340.00
2019-02-25T15:59:57.920Z,97338.00
2019-02-25T16:05:29.689Z,97331.00
2019-02-25T16:11:00.237Z,97338.00
2019-02-25T16:16:29.568Z,97342.00
2019-02-25T16:22:00.622Z,97349.00
2019-02-25T16:27:30.165Z,97348.00
2019-02-25T16:33:01.843Z,97349.00
2019-02-25T16:38:32.017Z,97356.00
2019-02-25T16:44:04.411Z,97354.00
2019-02-25T16:49:33.978Z,97363.00
2019-02-25T16:55:06.895Z,97357.00
2019-02-25T17:00:37.729Z,97368.00
2019-02-25T17:06:09.213Z,97359.00
2019-02-25T17:11:46.043Z,97367.00
2019-02-25T17:17:16.611Z,97369.00
2019-02-25T17:22:46.137Z,97378.00
2019-02-25T17:28:17.455Z,97392.00
2019-02-25T17:33:49.264Z,97387.00
2019-02-25T17:39:19.002Z,97384.00
2019-02-25T17:44:48.745Z,97386.00
2019-02-25T17:50:22.627Z,97382.00
2019-02-25T17:55:53.305Z,97378.00
2019-02-25T18:01:27.524Z,97378.00
2019-02-25T18:06:56.789Z,97375.00
2019-02-25T18:12:29.463Z,97385.00
2019-02-25T18:17:57.566Z,97393.00
2019-02-25T18:23:26.977Z,97390.00
2019-02-25T18:28:56.395Z,97388.00
2019-02-25T18:34:27.887Z,97379.00
2019-02-25T18:39:57.481Z,97367.00
2019-02-25T18:45:27.033Z,97370.00
2019-02-25T18:50:58.923Z,97384.00
2019-02-25T18:56:27.710Z,97372.00
2019-02-25T19:01:57.268Z,97378.00
2019-02-25T19:07:27.306Z,97373.00
2019-02-25T19:12:59.186Z,97370.00
2019-02-25T19:18:29.458Z,97359.00
2019-02-25T19:24:03.240Z,97366.00
2019-02-25T19:29:32.364Z,97363.00
2019-02-25T19:35:04.014Z,97362.00
2019-02-25T19:40:32.925Z,97361.00
2019-02-25T19:46:04.563Z,97363.00
2019-02-25T19:51:34.002Z,97379.00
2019-02-25T19:57:03.341Z,97384.00
2019-02-25T20:02:34.676Z,97384.00
2019-02-25T20:08:03.922Z,97385.00
2019-02-25T20:13:33.542Z,97392.00
2019-02-25T20:19:04.570Z,97389.00
2019-02-25T20:24:34.114Z,97389.00
2019-02-25T20:30:05.037Z,97393.00
2019-02-25T20:35:35.576Z,97391.00
2019-02-25T20:41:05.034Z,97391.00
2019-02-25T20:46:35.414Z,97388.00
2019-02-25T20:52:05.179Z,97392.00
2019-02-25T20:57:36.029Z,97402.00
2019-02-25T21:03:05.851Z,97404.00
2019-02-25T21:08:39.510Z,97407.00
2019-02-25T21:14:09.671Z,97398.00
2019-02-25T21:19:40.018Z,97404.00
2019-02-25T21:25:12.828Z,97392.00
2019-02-25T21:30:44.140Z,97391.00
2019-02-25T21:36:14.165Z,97383.00
2019-02-25T21:41:45.869Z,97391.00
2019-02-25T21:47:15.633Z,97379.00
2019-02-25T21:52:45.800Z,97387.00
2019-02-25T21:58:18.505Z,97385.00
2019-02-25T22:03:50.207Z,97381.00
2019-02-25T22:09:35.306Z,97386.00
2019-02-25T22:14:52.430Z,97383.00
2019-02-25T22:20:24.299Z,97379.00
2019-02-25T22:25:52.909Z,97378.00
2019-02-25T22:31:22.268Z,97366.00
2019-02-25T22:36:53.358Z,97358.00
2019-02-25T22:42:24.759Z,97357.00
2019-02-25T22:47:53.958Z,97356.00
2019-02-25T22:53:24.203Z,97352.00
2019-02-25T22:58:56.062Z,97348.00
2019-02-25T23:04:26.503Z,97361.00
2019-02-25T23:09:55.907Z,97354.00
2019-02-25T23:15:27.504Z,97347.00
2019-02-25T23:20:59.678Z,97365.00
2019-02-25T23:26:27.573Z,97370.00
2019-02-25T23:31:56.891Z,97376.00
2019-02-25T23:37:26.354Z,97387.00
2019-02-25T23:42:57.835Z,97392.00
2019-02-25T23:48:31.239Z,97386.00
2019-02-25T23:53:58.156Z,97389.00
2019-02-25T23:59:27.491Z,97388.00
